| Date | Time | Temp. (oF) | Dew Point (oF) | Rel. Hum. (%) | Press. (in.) | Wind Dir. | Wind Speed (mph) | Hourly Rainfall (in.) |
|
|---|---|---|---|---|---|---|---|---|---|
| 1 | 10/23 | 00:00 | 38 | 35 | 89 | 30.19 | NNW | 0 | 0.00 |
| 2 | 10/22 | 23:00 | 38 | 34 | 86 | 30.18 | NNW | 0 | 0.00 |
| 3 | 10/22 | 22:00 | 39 | 33 | 80 | 30.17 | NNW | 0 | 0.00 |
| 4 | 10/22 | 21:00 | 42 | 31 | 67 | 30.16 | NNW | 0 | 0.00 |
| 5 | 10/22 | 20:00 | 44 | 30 | 58 | 30.15 | NNW | 0 | 0.00 |
| 6 | 10/22 | 19:00 | 49 | 27 | 44 | 30.13 | NNW | 0 | 0.00 |
| 7 | 10/22 | 18:00 | 52 | 27 | 39 | 30.10 | NNW | 0 | 0.00 |
| 8 | 10/22 | 17:00 | 54 | 28 | 38 | 30.08 | NNW | 0 | 0.00 |
| 9 | 10/22 | 16:00 | 55 | 29 | 38 | 30.08 | NNW | 0 | 0.00 |
| 10 | 10/22 | 15:00 | 54 | 28 | 37 | 30.07 | NNW | 0 | 0.00 |
| 11 | 10/22 | 14:00 | 53 | 27 | 37 | 30.08 | NNW | 0 | 0.00 |
| 12 | 10/22 | 13:00 | 54 | 29 | 39 | 30.10 | WSW | 0 | 0.00 |
| 13 | 10/22 | 12:00 | 50 | 29 | 45 | 30.11 | SSW | 0 | 0.00 |
| 14 | 10/22 | 11:00 | 50 | 29 | 46 | 30.10 | SW | 0 | 0.00 |
| 15 | 10/22 | 10:00 | 49 | 29 | 47 | 30.09 | ESE | 0 | 0.00 |
| 16 | 10/22 | 09:00 | 48 | 31 | 53 | 30.07 | SSW | 0 | 0.00 |
| 17 | 10/22 | 08:00 | 43 | 37 | 81 | 30.03 | SSW | 0 | 0.00 |
| 18 | 10/22 | 07:00 | 42 | 38 | 86 | 30.01 | SW | 0 | 0.00 |
| 19 | 10/22 | 06:00 | 46 | 38 | 75 | 29.98 | WSW | 0 | 0.00 |
| 20 | 10/22 | 05:00 | 46 | 40 | 81 | 29.95 | WSW | 0 | 0.00 |
| 21 | 10/22 | 04:00 | 45 | 40 | 84 | 29.92 | SSW | 0 | 0.00 |
| 22 | 10/22 | 03:00 | 43 | 39 | 87 | 29.90 | S | 0 | 0.00 |
| 23 | 10/22 | 02:00 | 40 | 36 | 87 | 29.89 | SE | 0 | 0.00 |
| 24 | 10/22 | 01:00 | 40 | 36 | 86 | 29.87 | SE | 0 | 0.00 |